sensor_id;sensor_type;location;lat;lon;timestamp;P1;durP1;ratioP1;P2;durP2;ratioP2
15312;SDS011;7757;52.626;4.746;2023-01-24T00:00:37;9.05;;;2.80;;
15312;SDS011;7757;52.626;4.746;2023-01-24T00:03:04;8.70;;;2.70;;
15312;SDS011;7757;52.626;4.746;2023-01-24T00:05:36;8.85;;;2.85;;
15312;SDS011;7757;52.626;4.746;2023-01-24T00:08:03;9.68;;;2.65;;
15312;SDS011;7757;52.626;4.746;2023-01-24T00:10:30;9.38;;;2.55;;
15312;SDS011;7757;52.626;4.746;2023-01-24T00:12:57;9.00;;;2.80;;
15312;SDS011;7757;52.626;4.746;2023-01-24T00:15:25;8.07;;;2.50;;
15312;SDS011;7757;52.626;4.746;2023-01-24T00:17:52;8.10;;;2.40;;
15312;SDS011;7757;52.626;4.746;2023-01-24T00:20:19;8.57;;;2.53;;
15312;SDS011;7757;52.626;4.746;2023-01-24T00:22:46;10.73;;;2.90;;
15312;SDS011;7757;52.626;4.746;2023-01-24T00:25:12;8.95;;;2.78;;
15312;SDS011;7757;52.626;4.746;2023-01-24T00:27:39;9.05;;;2.53;;
15312;SDS011;7757;52.626;4.746;2023-01-24T00:30:06;9.52;;;2.63;;
15312;SDS011;7757;52.626;4.746;2023-01-24T00:32:35;8.82;;;2.60;;
15312;SDS011;7757;52.626;4.746;2023-01-24T00:35:01;9.32;;;2.58;;
15312;SDS011;7757;52.626;4.746;2023-01-24T00:37:28;9.65;;;2.75;;
15312;SDS011;7757;52.626;4.746;2023-01-24T00:39:55;11.13;;;2.90;;
15312;SDS011;7757;52.626;4.746;2023-01-24T00:42:21;9.15;;;2.75;;
15312;SDS011;7757;52.626;4.746;2023-01-24T00:44:48;8.82;;;2.70;;
15312;SDS011;7757;52.626;4.746;2023-01-24T00:47:14;8.77;;;2.70;;
15312;SDS011;7757;52.626;4.746;2023-01-24T00:49:42;14.10;;;2.65;;
15312;SDS011;7757;52.626;4.746;2023-01-24T00:52:09;10.93;;;2.80;;
15312;SDS011;7757;52.626;4.746;2023-01-24T00:54:35;9.00;;;2.60;;
15312;SDS011;7757;52.626;4.746;2023-01-24T00:57:02;8.98;;;2.78;;
15312;SDS011;7757;52.626;4.746;2023-01-24T00:59:29;10.38;;;2.60;;
15312;SDS011;7757;52.626;4.746;2023-01-24T01:01:55;9.35;;;2.70;;
15312;SDS011;7757;52.626;4.746;2023-01-24T01:04:22;8.20;;;2.60;;
15312;SDS011;7757;52.626;4.746;2023-01-24T01:06:50;9.85;;;2.80;;
15312;SDS011;7757;52.626;4.746;2023-01-24T01:09:17;7.95;;;2.58;;
15312;SDS011;7757;52.626;4.746;2023-01-24T01:11:43;9.63;;;2.88;;
15312;SDS011;7757;52.626;4.746;2023-01-24T01:14:10;9.02;;;2.75;;
15312;SDS011;7757;52.626;4.746;2023-01-24T01:16:36;9.10;;;3.00;;
15312;SDS011;7757;52.626;4.746;2023-01-24T01:19:03;8.43;;;2.60;;
15312;SDS011;7757;52.626;4.746;2023-01-24T01:21:31;9.35;;;2.85;;
15312;SDS011;7757;52.626;4.746;2023-01-24T01:23:59;10.70;;;2.95;;
15312;SDS011;7757;52.626;4.746;2023-01-24T01:26:26;8.30;;;2.60;;
15312;SDS011;7757;52.626;4.746;2023-01-24T01:28:52;9.20;;;2.65;;
15312;SDS011;7757;52.626;4.746;2023-01-24T01:31:19;12.02;;;2.80;;
15312;SDS011;7757;52.626;4.746;2023-01-24T01:33:46;10.10;;;3.20;;
15312;SDS011;7757;52.626;4.746;2023-01-24T01:36:13;8.90;;;2.80;;
15312;SDS011;7757;52.626;4.746;2023-01-24T01:38:40;9.50;;;3.10;;
15312;SDS011;7757;52.626;4.746;2023-01-24T01:41:10;10.10;;;3.10;;
15312;SDS011;7757;52.626;4.746;2023-01-24T01:43:37;10.02;;;3.05;;
15312;SDS011;7757;52.626;4.746;2023-01-24T01:46:25;8.88;;;2.80;;
15312;SDS011;7757;52.626;4.746;2023-01-24T01:48:54;9.00;;;2.90;;
15312;SDS011;7757;52.626;4.746;2023-01-24T01:51:25;9.60;;;2.90;;
15312;SDS011;7757;52.626;4.746;2023-01-24T01:53:59;9.27;;;3.00;;
15312;SDS011;7757;52.626;4.746;2023-01-24T01:56:32;9.40;;;2.95;;
15312;SDS011;7757;52.626;4.746;2023-01-24T01:59:04;9.25;;;2.95;;
15312;SDS011;7757;52.626;4.746;2023-01-24T02:01:35;9.57;;;3.00;;
15312;SDS011;7757;52.626;4.746;2023-01-24T02:04:03;9.50;;;3.10;;
15312;SDS011;7757;52.626;4.746;2023-01-24T02:06:39;14.68;;;3.42;;
15312;SDS011;7757;52.626;4.746;2023-01-24T02:09:12;9.55;;;3.08;;
15312;SDS011;7757;52.626;4.746;2023-01-24T02:11:45;9.90;;;3.35;;
15312;SDS011;7757;52.626;4.746;2023-01-24T02:14:14;11.13;;;3.40;;
15312;SDS011;7757;52.626;4.746;2023-01-24T02:17:01;9.32;;;3.17;;
15312;SDS011;7757;52.626;4.746;2023-01-24T02:19:32;9.63;;;2.90;;
15312;SDS011;7757;52.626;4.746;2023-01-24T02:22:09;9.82;;;3.10;;
15312;SDS011;7757;52.626;4.746;2023-01-24T02:24:43;9.43;;;3.08;;
15312;SDS011;7757;52.626;4.746;2023-01-24T02:27:18;9.70;;;3.42;;
15312;SDS011;7757;52.626;4.746;2023-01-24T02:29:45;9.82;;;3.20;;
15312;SDS011;7757;52.626;4.746;2023-01-24T02:32:11;11.35;;;3.25;;
15312;SDS011;7757;52.626;4.746;2023-01-24T02:34:40;9.50;;;3.05;;
15312;SDS011;7757;52.626;4.746;2023-01-24T02:37:07;9.73;;;3.15;;
15312;SDS011;7757;52.626;4.746;2023-01-24T02:39:39;9.98;;;3.22;;
15312;SDS011;7757;52.626;4.746;2023-01-24T02:42:11;9.75;;;3.40;;
15312;SDS011;7757;52.626;4.746;2023-01-24T02:44:42;9.60;;;2.97;;
15312;SDS011;7757;52.626;4.746;2023-01-24T02:47:12;10.35;;;3.03;;
15312;SDS011;7757;52.626;4.746;2023-01-24T02:49:39;9.88;;;3.08;;
15312;SDS011;7757;52.626;4.746;2023-01-24T02:52:06;9.45;;;2.85;;
15312;SDS011;7757;52.626;4.746;2023-01-24T02:54:51;10.18;;;3.50;;
15312;SDS011;7757;52.626;4.746;2023-01-24T02:57:18;9.18;;;3.00;;
15312;SDS011;7757;52.626;4.746;2023-01-24T03:00:07;9.60;;;3.38;;
15312;SDS011;7757;52.626;4.746;2023-01-24T03:02:39;10.52;;;3.28;;
15312;SDS011;7757;52.626;4.746;2023-01-24T03:05:05;10.68;;;3.60;;
15312;SDS011;7757;52.626;4.746;2023-01-24T03:07:32;13.98;;;4.03;;
15312;SDS011;7757;52.626;4.746;2023-01-24T03:10:07;12.48;;;3.55;;
15312;SDS011;7757;52.626;4.746;2023-01-24T03:12:35;10.10;;;3.17;;
15312;SDS011;7757;52.626;4.746;2023-01-24T03:15:20;13.50;;;3.80;;
15312;SDS011;7757;52.626;4.746;2023-01-24T03:18:05;10.30;;;3.22;;
15312;SDS011;7757;52.626;4.746;2023-01-24T03:20:49;9.98;;;3.20;;
15312;SDS011;7757;52.626;4.746;2023-01-24T03:23:33;10.40;;;3.60;;
15312;SDS011;7757;52.626;4.746;2023-01-24T03:26:18;17.25;;;3.50;;
15312;SDS011;7757;52.626;4.746;2023-01-24T03:29:02;9.95;;;3.28;;
15312;SDS011;7757;52.626;4.746;2023-01-24T03:31:47;11.20;;;3.13;;
15312;SDS011;7757;52.626;4.746;2023-01-24T03:34:32;10.45;;;3.63;;
15312;SDS011;7757;52.626;4.746;2023-01-24T03:36:58;11.05;;;3.20;;
15312;SDS011;7757;52.626;4.746;2023-01-24T03:39:25;10.82;;;3.22;;
15312;SDS011;7757;52.626;4.746;2023-01-24T03:42:10;10.98;;;3.03;;
15312;SDS011;7757;52.626;4.746;2023-01-24T03:44:36;11.18;;;3.67;;
15312;SDS011;7757;52.626;4.746;2023-01-24T03:47:05;10.23;;;3.45;;
15312;SDS011;7757;52.626;4.746;2023-01-24T03:49:31;11.50;;;3.25;;
15312;SDS011;7757;52.626;4.746;2023-01-24T03:52:15;10.35;;;3.47;;
15312;SDS011;7757;52.626;4.746;2023-01-24T03:54:53;10.68;;;3.25;;
15312;SDS011;7757;52.626;4.746;2023-01-24T03:57:19;10.48;;;3.60;;
15312;SDS011;7757;52.626;4.746;2023-01-24T03:59:46;9.68;;;3.15;;
15312;SDS011;7757;52.626;4.746;2023-01-24T04:02:14;10.35;;;3.38;;
15312;SDS011;7757;52.626;4.746;2023-01-24T04:04:41;10.10;;;3.47;;
15312;SDS011;7757;52.626;4.746;2023-01-24T04:07:29;9.27;;;3.20;;
15312;SDS011;7757;52.626;4.746;2023-01-24T04:09:55;9.90;;;3.30;;
15312;SDS011;7757;52.626;4.746;2023-01-24T04:12:22;10.70;;;3.20;;
15312;SDS011;7757;52.626;4.746;2023-01-24T04:14:49;9.93;;;3.10;;
15312;SDS011;7757;52.626;4.746;2023-01-24T04:17:17;11.38;;;3.13;;
15312;SDS011;7757;52.626;4.746;2023-01-24T04:19:44;12.32;;;3.42;;
15312;SDS011;7757;52.626;4.746;2023-01-24T04:22:10;9.52;;;3.10;;
15312;SDS011;7757;52.626;4.746;2023-01-24T04:24:37;8.57;;;3.00;;
15312;SDS011;7757;52.626;4.746;2023-01-24T04:27:04;8.80;;;3.00;;
15312;SDS011;7757;52.626;4.746;2023-01-24T04:29:30;10.40;;;3.28;;
15312;SDS011;7757;52.626;4.746;2023-01-24T04:31:57;10.05;;;3.03;;
15312;SDS011;7757;52.626;4.746;2023-01-24T04:34:25;11.02;;;3.22;;
15312;SDS011;7757;52.626;4.746;2023-01-24T04:36:52;9.63;;;3.00;;
15312;SDS011;7757;52.626;4.746;2023-01-24T04:39:18;9.95;;;3.25;;
15312;SDS011;7757;52.626;4.746;2023-01-24T04:41:45;9.20;;;3.17;;
15312;SDS011;7757;52.626;4.746;2023-01-24T04:44:11;10.07;;;3.50;;
15312;SDS011;7757;52.626;4.746;2023-01-24T04:46:38;10.13;;;3.22;;
15312;SDS011;7757;52.626;4.746;2023-01-24T04:49:05;8.68;;;2.97;;
15312;SDS011;7757;52.626;4.746;2023-01-24T04:51:33;10.10;;;3.45;;
15312;SDS011;7757;52.626;4.746;2023-01-24T04:54:00;9.32;;;2.97;;
15312;SDS011;7757;52.626;4.746;2023-01-24T04:56:27;9.10;;;3.00;;
15312;SDS011;7757;52.626;4.746;2023-01-24T04:58:53;9.63;;;3.10;;
15312;SDS011;7757;52.626;4.746;2023-01-24T05:01:20;9.38;;;3.30;;
15312;SDS011;7757;52.626;4.746;2023-01-24T05:03:46;9.43;;;3.10;;
15312;SDS011;7757;52.626;4.746;2023-01-24T05:06:13;10.20;;;3.25;;
15312;SDS011;7757;52.626;4.746;2023-01-24T05:08:41;9.48;;;3.05;;
15312;SDS011;7757;52.626;4.746;2023-01-24T05:11:07;9.20;;;3.00;;
15312;SDS011;7757;52.626;4.746;2023-01-24T05:13:34;9.30;;;3.00;;
15312;SDS011;7757;52.626;4.746;2023-01-24T05:16:02;9.30;;;3.30;;
15312;SDS011;7757;52.626;4.746;2023-01-24T05:18:29;11.15;;;3.00;;
15312;SDS011;7757;52.626;4.746;2023-01-24T05:21:03;9.73;;;3.05;;
15312;SDS011;7757;52.626;4.746;2023-01-24T05:23:30;9.25;;;2.75;;
15312;SDS011;7757;52.626;4.746;2023-01-24T05:25:59;12.20;;;3.65;;
15312;SDS011;7757;52.626;4.746;2023-01-24T05:28:25;9.40;;;3.10;;
15312;SDS011;7757;52.626;4.746;2023-01-24T05:30:52;10.30;;;3.03;;
15312;SDS011;7757;52.626;4.746;2023-01-24T05:33:19;9.68;;;3.15;;
15312;SDS011;7757;52.626;4.746;2023-01-24T05:35:45;9.98;;;3.13;;
15312;SDS011;7757;52.626;4.746;2023-01-24T05:38:12;8.98;;;2.90;;
15312;SDS011;7757;52.626;4.746;2023-01-24T05:40:38;10.02;;;3.10;;
15312;SDS011;7757;52.626;4.746;2023-01-24T05:43:06;11.27;;;2.97;;
15312;SDS011;7757;52.626;4.746;2023-01-24T05:45:33;9.32;;;2.97;;
15312;SDS011;7757;52.626;4.746;2023-01-24T05:48:00;8.95;;;3.00;;
15312;SDS011;7757;52.626;4.746;2023-01-24T05:50:26;10.05;;;2.85;;
15312;SDS011;7757;52.626;4.746;2023-01-24T05:52:53;10.90;;;2.92;;
15312;SDS011;7757;52.626;4.746;2023-01-24T05:55:19;9.50;;;2.92;;
15312;SDS011;7757;52.626;4.746;2023-01-24T05:57:46;10.15;;;2.80;;
15312;SDS011;7757;52.626;4.746;2023-01-24T06:00:14;9.30;;;2.83;;
15312;SDS011;7757;52.626;4.746;2023-01-24T06:02:41;9.55;;;2.92;;
15312;SDS011;7757;52.626;4.746;2023-01-24T06:05:08;9.05;;;3.08;;
15312;SDS011;7757;52.626;4.746;2023-01-24T06:07:35;9.70;;;3.10;;
15312;SDS011;7757;52.626;4.746;2023-01-24T06:10:01;8.30;;;2.75;;
15312;SDS011;7757;52.626;4.746;2023-01-24T06:12:28;9.43;;;3.10;;
15312;SDS011;7757;52.626;4.746;2023-01-24T06:14:54;10.93;;;3.40;;
15312;SDS011;7757;52.626;4.746;2023-01-24T06:17:22;9.27;;;2.92;;
15312;SDS011;7757;52.626;4.746;2023-01-24T06:19:49;10.95;;;3.00;;
15312;SDS011;7757;52.626;4.746;2023-01-24T06:22:18;9.90;;;3.30;;
15312;SDS011;7757;52.626;4.746;2023-01-24T06:24:48;9.20;;;2.78;;
15312;SDS011;7757;52.626;4.746;2023-01-24T06:27:15;7.80;;;2.55;;
15312;SDS011;7757;52.626;4.746;2023-01-24T06:29:42;9.43;;;3.20;;
15312;SDS011;7757;52.626;4.746;2023-01-24T06:32:14;8.43;;;2.72;;
15312;SDS011;7757;52.626;4.746;2023-01-24T06:35:00;10.73;;;3.05;;
15312;SDS011;7757;52.626;4.746;2023-01-24T06:37:37;8.82;;;2.80;;
15312;SDS011;7757;52.626;4.746;2023-01-24T06:40:12;8.73;;;2.95;;
15312;SDS011;7757;52.626;4.746;2023-01-24T06:42:41;10.13;;;3.17;;
15312;SDS011;7757;52.626;4.746;2023-01-24T06:45:09;8.57;;;2.75;;
15312;SDS011;7757;52.626;4.746;2023-01-24T06:47:36;10.65;;;2.97;;
15312;SDS011;7757;52.626;4.746;2023-01-24T06:50:04;6.97;;;2.30;;
15312;SDS011;7757;52.626;4.746;2023-01-24T06:52:35;9.55;;;3.13;;
15312;SDS011;7757;52.626;4.746;2023-01-24T06:55:02;11.00;;;3.15;;
15312;SDS011;7757;52.626;4.746;2023-01-24T06:57:29;10.13;;;3.00;;
15312;SDS011;7757;52.626;4.746;2023-01-24T06:59:56;15.13;;;3.30;;
15312;SDS011;7757;52.626;4.746;2023-01-24T07:02:23;13.20;;;3.53;;
15312;SDS011;7757;52.626;4.746;2023-01-24T07:04:49;11.85;;;3.13;;
15312;SDS011;7757;52.626;4.746;2023-01-24T07:07:17;13.35;;;3.20;;
15312;SDS011;7757;52.626;4.746;2023-01-24T07:09:44;13.65;;;3.53;;
15312;SDS011;7757;52.626;4.746;2023-01-24T07:12:10;15.23;;;3.25;;
15312;SDS011;7757;52.626;4.746;2023-01-24T07:14:37;12.93;;;3.13;;
15312;SDS011;7757;52.626;4.746;2023-01-24T07:17:04;10.70;;;3.03;;
15312;SDS011;7757;52.626;4.746;2023-01-24T07:19:31;12.48;;;3.42;;
15312;SDS011;7757;52.626;4.746;2023-01-24T07:21:58;10.52;;;2.75;;
15312;SDS011;7757;52.626;4.746;2023-01-24T07:24:27;15.07;;;3.10;;
15312;SDS011;7757;52.626;4.746;2023-01-24T07:26:55;10.88;;;2.95;;
15312;SDS011;7757;52.626;4.746;2023-01-24T07:29:22;14.02;;;3.42;;
15312;SDS011;7757;52.626;4.746;2023-01-24T07:31:50;10.25;;;2.97;;
15312;SDS011;7757;52.626;4.746;2023-01-24T07:34:17;10.20;;;2.83;;
15312;SDS011;7757;52.626;4.746;2023-01-24T07:36:45;10.90;;;2.90;;
15312;SDS011;7757;52.626;4.746;2023-01-24T07:39:12;13.85;;;3.13;;
15312;SDS011;7757;52.626;4.746;2023-01-24T07:41:40;10.70;;;2.97;;
15312;SDS011;7757;52.626;4.746;2023-01-24T07:44:09;10.38;;;2.92;;
15312;SDS011;7757;52.626;4.746;2023-01-24T07:46:36;10.55;;;3.00;;
15312;SDS011;7757;52.626;4.746;2023-01-24T07:49:03;13.25;;;3.10;;
15312;SDS011;7757;52.626;4.746;2023-01-24T07:51:30;11.38;;;2.80;;
15312;SDS011;7757;52.626;4.746;2023-01-24T07:53:56;11.75;;;2.88;;
15312;SDS011;7757;52.626;4.746;2023-01-24T07:56:23;10.43;;;2.90;;
15312;SDS011;7757;52.626;4.746;2023-01-24T07:58:51;11.70;;;2.85;;
15312;SDS011;7757;52.626;4.746;2023-01-24T08:01:18;11.18;;;2.90;;
15312;SDS011;7757;52.626;4.746;2023-01-24T08:03:46;9.27;;;2.60;;
15312;SDS011;7757;52.626;4.746;2023-01-24T08:06:13;10.27;;;2.80;;
15312;SDS011;7757;52.626;4.746;2023-01-24T08:08:39;9.48;;;2.83;;
15312;SDS011;7757;52.626;4.746;2023-01-24T08:11:06;10.35;;;2.40;;
15312;SDS011;7757;52.626;4.746;2023-01-24T08:13:35;10.55;;;2.85;;
15312;SDS011;7757;52.626;4.746;2023-01-24T08:16:04;10.75;;;2.97;;
15312;SDS011;7757;52.626;4.746;2023-01-24T08:18:31;10.32;;;2.63;;
15312;SDS011;7757;52.626;4.746;2023-01-24T08:20:58;10.90;;;2.65;;
15312;SDS011;7757;52.626;4.746;2023-01-24T08:23:24;7.72;;;2.60;;
15312;SDS011;7757;52.626;4.746;2023-01-24T08:25:51;11.73;;;2.88;;
15312;SDS011;7757;52.626;4.746;2023-01-24T08:28:17;10.10;;;2.55;;
15312;SDS011;7757;52.626;4.746;2023-01-24T08:30:44;7.88;;;2.33;;
15312;SDS011;7757;52.626;4.746;2023-01-24T08:33:12;9.02;;;2.38;;
15312;SDS011;7757;52.626;4.746;2023-01-24T08:35:42;8.50;;;2.45;;
15312;SDS011;7757;52.626;4.746;2023-01-24T08:38:10;10.10;;;2.38;;
15312;SDS011;7757;52.626;4.746;2023-01-24T08:40:36;9.48;;;2.25;;
15312;SDS011;7757;52.626;4.746;2023-01-24T08:43:03;9.93;;;2.60;;
15312;SDS011;7757;52.626;4.746;2023-01-24T08:45:29;7.50;;;2.25;;
15312;SDS011;7757;52.626;4.746;2023-01-24T08:47:56;10.63;;;2.63;;
15312;SDS011;7757;52.626;4.746;2023-01-24T08:50:25;10.90;;;2.38;;
15312;SDS011;7757;52.626;4.746;2023-01-24T08:52:53;9.48;;;2.55;;
15312;SDS011;7757;52.626;4.746;2023-01-24T08:55:21;9.10;;;2.70;;
15312;SDS011;7757;52.626;4.746;2023-01-24T08:57:48;10.35;;;2.78;;
15312;SDS011;7757;52.626;4.746;2023-01-24T09:00:15;10.27;;;2.72;;
15312;SDS011;7757;52.626;4.746;2023-01-24T09:02:42;8.02;;;2.38;;
15312;SDS011;7757;52.626;4.746;2023-01-24T09:05:09;8.93;;;2.55;;
15312;SDS011;7757;52.626;4.746;2023-01-24T09:07:37;8.50;;;2.40;;
15312;SDS011;7757;52.626;4.746;2023-01-24T09:10:06;9.27;;;3.13;;
15312;SDS011;7757;52.626;4.746;2023-01-24T09:12:33;8.98;;;2.28;;
15312;SDS011;7757;52.626;4.746;2023-01-24T09:15:00;9.68;;;2.38;;
15312;SDS011;7757;52.626;4.746;2023-01-24T09:17:26;9.07;;;2.20;;
15312;SDS011;7757;52.626;4.746;2023-01-24T09:19:53;10.77;;;2.33;;
15312;SDS011;7757;52.626;4.746;2023-01-24T09:22:20;9.20;;;2.50;;
15312;SDS011;7757;52.626;4.746;2023-01-24T09:24:48;14.20;;;3.45;;
15312;SDS011;7757;52.626;4.746;2023-01-24T09:27:15;6.90;;;2.05;;
15312;SDS011;7757;52.626;4.746;2023-01-24T09:29:41;8.75;;;2.22;;
15312;SDS011;7757;52.626;4.746;2023-01-24T09:32:08;8.32;;;2.00;;
15312;SDS011;7757;52.626;4.746;2023-01-24T09:34:34;8.35;;;2.40;;
15312;SDS011;7757;52.626;4.746;2023-01-24T09:37:01;8.65;;;2.33;;
15312;SDS011;7757;52.626;4.746;2023-01-24T09:39:27;8.93;;;2.40;;
15312;SDS011;7757;52.626;4.746;2023-01-24T09:42:00;8.02;;;2.30;;
15312;SDS011;7757;52.626;4.746;2023-01-24T09:44:34;9.38;;;2.50;;
15312;SDS011;7757;52.626;4.746;2023-01-24T09:47:10;8.10;;;2.53;;
15312;SDS011;7757;52.626;4.746;2023-01-24T09:49:44;8.45;;;2.22;;
15312;SDS011;7757;52.626;4.746;2023-01-24T09:52:18;7.35;;;2.10;;
15312;SDS011;7757;52.626;4.746;2023-01-24T09:54:53;7.72;;;2.13;;
15312;SDS011;7757;52.626;4.746;2023-01-24T09:57:27;9.73;;;2.63;;
15312;SDS011;7757;52.626;4.746;2023-01-24T10:00:02;7.95;;;2.20;;
15312;SDS011;7757;52.626;4.746;2023-01-24T10:02:30;7.05;;;2.20;;
15312;SDS011;7757;52.626;4.746;2023-01-24T10:04:57;8.00;;;2.28;;
15312;SDS011;7757;52.626;4.746;2023-01-24T10:07:28;10.02;;;2.30;;
15312;SDS011;7757;52.626;4.746;2023-01-24T10:10:20;9.60;;;2.40;;
15312;SDS011;7757;52.626;4.746;2023-01-24T10:13:02;7.68;;;2.20;;
15312;SDS011;7757;52.626;4.746;2023-01-24T10:15:42;8.70;;;2.63;;
15312;SDS011;7757;52.626;4.746;2023-01-24T10:21:13;11.50;;;2.60;;
15312;SDS011;7757;52.626;4.746;2023-01-24T10:23:49;11.65;;;2.80;;
15312;SDS011;7757;52.626;4.746;2023-01-24T10:26:20;12.80;;;3.08;;
15312;SDS011;7757;52.626;4.746;2023-01-24T10:28:49;12.82;;;3.10;;
15312;SDS011;7757;52.626;4.746;2023-01-24T10:31:18;11.52;;;2.65;;
15312;SDS011;7757;52.626;4.746;2023-01-24T10:33:49;15.35;;;3.10;;
15312;SDS011;7757;52.626;4.746;2023-01-24T10:36:21;13.27;;;3.00;;
15312;SDS011;7757;52.626;4.746;2023-01-24T10:38:54;13.98;;;3.45;;
15312;SDS011;7757;52.626;4.746;2023-01-24T10:41:21;13.77;;;3.03;;
15312;SDS011;7757;52.626;4.746;2023-01-24T10:43:52;15.10;;;3.35;;
15312;SDS011;7757;52.626;4.746;2023-01-24T10:46:31;14.35;;;3.30;;
15312;SDS011;7757;52.626;4.746;2023-01-24T10:49:11;13.48;;;3.05;;
15312;SDS011;7757;52.626;4.746;2023-01-24T10:51:45;15.50;;;3.65;;
15312;SDS011;7757;52.626;4.746;2023-01-24T10:54:46;15.30;;;3.60;;
15312;SDS011;7757;52.626;4.746;2023-01-24T10:57:20;15.77;;;3.13;;
15312;SDS011;7757;52.626;4.746;2023-01-24T10:59:56;14.48;;;3.25;;
15312;SDS011;7757;52.626;4.746;2023-01-24T11:02:29;15.00;;;3.50;;
15312;SDS011;7757;52.626;4.746;2023-01-24T11:04:59;15.98;;;3.70;;
15312;SDS011;7757;52.626;4.746;2023-01-24T11:07:29;12.07;;;3.22;;
15312;SDS011;7757;52.626;4.746;2023-01-24T11:10:01;17.67;;;3.58;;
15312;SDS011;7757;52.626;4.746;2023-01-24T11:12:34;14.93;;;3.45;;
15312;SDS011;7757;52.626;4.746;2023-01-24T11:15:03;12.82;;;3.47;;
15312;SDS011;7757;52.626;4.746;2023-01-24T11:17:31;9.95;;;2.90;;
15312;SDS011;7757;52.626;4.746;2023-01-24T11:20:02;13.20;;;3.13;;
15312;SDS011;7757;52.626;4.746;2023-01-24T11:22:42;13.57;;;3.17;;
15312;SDS011;7757;52.626;4.746;2023-01-24T11:25:15;12.40;;;3.38;;
15312;SDS011;7757;52.626;4.746;2023-01-24T11:27:46;13.23;;;3.22;;
15312;SDS011;7757;52.626;4.746;2023-01-24T11:30:27;12.88;;;3.03;;
15312;SDS011;7757;52.626;4.746;2023-01-24T11:33:06;10.80;;;3.08;;
15312;SDS011;7757;52.626;4.746;2023-01-24T11:35:50;11.93;;;2.90;;
15312;SDS011;7757;52.626;4.746;2023-01-24T11:38:24;12.02;;;2.83;;
15312;SDS011;7757;52.626;4.746;2023-01-24T11:40:58;13.45;;;3.10;;
15312;SDS011;7757;52.626;4.746;2023-01-24T11:43:37;13.27;;;3.38;;
15312;SDS011;7757;52.626;4.746;2023-01-24T11:46:20;11.10;;;3.20;;
15312;SDS011;7757;52.626;4.746;2023-01-24T11:48:57;11.18;;;3.08;;
15312;SDS011;7757;52.626;4.746;2023-01-24T11:51:41;11.43;;;3.22;;
15312;SDS011;7757;52.626;4.746;2023-01-24T11:54:20;14.18;;;3.30;;
15312;SDS011;7757;52.626;4.746;2023-01-24T11:56:59;10.65;;;2.97;;
15312;SDS011;7757;52.626;4.746;2023-01-24T11:59:37;10.45;;;2.80;;
15312;SDS011;7757;52.626;4.746;2023-01-24T12:02:23;13.63;;;3.03;;
15312;SDS011;7757;52.626;4.746;2023-01-24T12:05:10;14.35;;;2.95;;
15312;SDS011;7757;52.626;4.746;2023-01-24T12:07:52;10.27;;;2.72;;
15312;SDS011;7757;52.626;4.746;2023-01-24T12:10:27;11.88;;;3.15;;
15312;SDS011;7757;52.626;4.746;2023-01-24T12:13:03;13.50;;;2.80;;
15312;SDS011;7757;52.626;4.746;2023-01-24T12:15:38;9.32;;;2.58;;
15312;SDS011;7757;52.626;4.746;2023-01-24T12:18:33;10.77;;;2.53;;
15312;SDS011;7757;52.626;4.746;2023-01-24T12:21:28;12.40;;;3.25;;
15312;SDS011;7757;52.626;4.746;2023-01-24T12:23:55;10.30;;;3.00;;
15312;SDS011;7757;52.626;4.746;2023-01-24T12:26:27;11.05;;;2.80;;
15312;SDS011;7757;52.626;4.746;2023-01-24T12:28:57;10.82;;;2.72;;
15312;SDS011;7757;52.626;4.746;2023-01-24T12:31:32;9.45;;;2.85;;
15312;SDS011;7757;52.626;4.746;2023-01-24T12:34:08;13.82;;;2.70;;
15312;SDS011;7757;52.626;4.746;2023-01-24T12:36:48;11.50;;;2.67;;
15312;SDS011;7757;52.626;4.746;2023-01-24T12:39:23;10.60;;;2.72;;
15312;SDS011;7757;52.626;4.746;2023-01-24T12:41:56;10.52;;;2.25;;
15312;SDS011;7757;52.626;4.746;2023-01-24T12:44:29;9.50;;;2.50;;
15312;SDS011;7757;52.626;4.746;2023-01-24T12:47:11;8.52;;;2.50;;
15312;SDS011;7757;52.626;4.746;2023-01-24T12:49:51;10.63;;;3.10;;
15312;SDS011;7757;52.626;4.746;2023-01-24T12:52:27;10.20;;;2.53;;
15312;SDS011;7757;52.626;4.746;2023-01-24T12:55:00;9.30;;;2.40;;
15312;SDS011;7757;52.626;4.746;2023-01-24T12:57:31;8.75;;;2.40;;
15312;SDS011;7757;52.626;4.746;2023-01-24T13:00:08;9.57;;;2.60;;
15312;SDS011;7757;52.626;4.746;2023-01-24T13:05:44;10.27;;;2.83;;
15312;SDS011;7757;52.626;4.746;2023-01-24T13:08:21;9.82;;;2.50;;
15312;SDS011;7757;52.626;4.746;2023-01-24T13:10:57;8.93;;;2.45;;
15312;SDS011;7757;52.626;4.746;2023-01-24T13:13:34;10.00;;;2.60;;
15312;SDS011;7757;52.626;4.746;2023-01-24T13:16:06;12.30;;;2.78;;
15312;SDS011;7757;52.626;4.746;2023-01-24T13:18:54;8.02;;;2.33;;
15312;SDS011;7757;52.626;4.746;2023-01-24T13:21:31;9.75;;;2.40;;
15312;SDS011;7757;52.626;4.746;2023-01-24T13:24:30;8.48;;;2.38;;
15312;SDS011;7757;52.626;4.746;2023-01-24T13:30:05;8.68;;;2.70;;
15312;SDS011;7757;52.626;4.746;2023-01-24T13:32:50;8.60;;;2.38;;
15312;SDS011;7757;52.626;4.746;2023-01-24T13:35:20;10.15;;;2.63;;
15312;SDS011;7757;52.626;4.746;2023-01-24T13:37:50;8.55;;;2.38;;
15312;SDS011;7757;52.626;4.746;2023-01-24T13:40:20;10.20;;;2.50;;
15312;SDS011;7757;52.626;4.746;2023-01-24T13:42:49;7.93;;;2.20;;
15312;SDS011;7757;52.626;4.746;2023-01-24T13:51:22;7.75;;;2.17;;
15312;SDS011;7757;52.626;4.746;2023-01-24T13:54:00;9.57;;;2.55;;
15312;SDS011;7757;52.626;4.746;2023-01-24T13:56:29;11.13;;;2.38;;
15312;SDS011;7757;52.626;4.746;2023-01-24T13:58:56;8.13;;;2.28;;
15312;SDS011;7757;52.626;4.746;2023-01-24T14:01:25;9.88;;;2.30;;
15312;SDS011;7757;52.626;4.746;2023-01-24T14:03:53;8.90;;;2.38;;
15312;SDS011;7757;52.626;4.746;2023-01-24T14:06:23;9.48;;;2.70;;
15312;SDS011;7757;52.626;4.746;2023-01-24T14:11:54;9.50;;;2.38;;
15312;SDS011;7757;52.626;4.746;2023-01-24T14:14:35;8.55;;;2.25;;
15312;SDS011;7757;52.626;4.746;2023-01-24T14:19:54;8.13;;;2.00;;
15312;SDS011;7757;52.626;4.746;2023-01-24T14:25:23;8.10;;;2.40;;
15312;SDS011;7757;52.626;4.746;2023-01-24T14:27:54;10.40;;;2.50;;
15312;SDS011;7757;52.626;4.746;2023-01-24T14:30:30;7.72;;;2.28;;
15312;SDS011;7757;52.626;4.746;2023-01-24T14:33:03;8.20;;;2.30;;
15312;SDS011;7757;52.626;4.746;2023-01-24T14:35:32;17.35;;;2.38;;
15312;SDS011;7757;52.626;4.746;2023-01-24T14:38:13;9.95;;;2.85;;
15312;SDS011;7757;52.626;4.746;2023-01-24T14:40:49;9.05;;;2.50;;
15312;SDS011;7757;52.626;4.746;2023-01-24T14:43:17;10.82;;;2.45;;
15312;SDS011;7757;52.626;4.746;2023-01-24T14:45:45;7.22;;;2.20;;
15312;SDS011;7757;52.626;4.746;2023-01-24T14:48:14;9.15;;;2.20;;
15312;SDS011;7757;52.626;4.746;2023-01-24T14:50:55;9.10;;;2.63;;
15312;SDS011;7757;52.626;4.746;2023-01-24T14:53:23;8.48;;;2.40;;
15312;SDS011;7757;52.626;4.746;2023-01-24T14:55:55;9.20;;;2.50;;
15312;SDS011;7757;52.626;4.746;2023-01-24T14:58:26;9.07;;;2.35;;
15312;SDS011;7757;52.626;4.746;2023-01-24T15:00:54;8.20;;;2.13;;
15312;SDS011;7757;52.626;4.746;2023-01-24T15:03:23;7.68;;;2.20;;
15312;SDS011;7757;52.626;4.746;2023-01-24T15:05:55;12.10;;;2.10;;
15312;SDS011;7757;52.626;4.746;2023-01-24T15:08:26;7.03;;;1.92;;
15312;SDS011;7757;52.626;4.746;2023-01-24T15:10:59;7.35;;;2.30;;
15312;SDS011;7757;52.626;4.746;2023-01-24T15:13:32;8.10;;;2.13;;
15312;SDS011;7757;52.626;4.746;2023-01-24T15:16:02;7.22;;;2.00;;
15312;SDS011;7757;52.626;4.746;2023-01-24T15:18:40;7.97;;;2.25;;
15312;SDS011;7757;52.626;4.746;2023-01-24T15:21:17;8.75;;;2.30;;
15312;SDS011;7757;52.626;4.746;2023-01-24T15:23:47;8.95;;;2.20;;
15312;SDS011;7757;52.626;4.746;2023-01-24T15:26:34;8.85;;;2.30;;
15312;SDS011;7757;52.626;4.746;2023-01-24T15:35:19;7.10;;;2.20;;
15312;SDS011;7757;52.626;4.746;2023-01-24T15:38:17;10.25;;;2.33;;
15312;SDS011;7757;52.626;4.746;2023-01-24T15:40:52;8.63;;;2.30;;
15312;SDS011;7757;52.626;4.746;2023-01-24T15:43:25;8.60;;;2.30;;
15312;SDS011;7757;52.626;4.746;2023-01-24T15:46:33;8.23;;;2.30;;
15312;SDS011;7757;52.626;4.746;2023-01-24T15:49:56;8.48;;;2.30;;